createdAt,value
2022-09-10T00:01:40.048Z,15.88
2022-09-10T00:04:11.811Z,15.81
2022-09-10T00:06:40.380Z,15.82
2022-09-10T00:09:09.223Z,15.83
2022-09-10T00:11:40.952Z,15.80
2022-09-10T00:14:13.763Z,15.82
2022-09-10T00:16:41.621Z,15.78
2022-09-10T00:19:09.419Z,15.80
2022-09-10T00:21:37.157Z,15.81
2022-09-10T00:24:05.701Z,15.84
2022-09-10T00:26:38.418Z,15.81
2022-09-10T00:29:08.511Z,15.81
2022-09-10T00:31:37.578Z,15.81
2022-09-10T00:34:06.642Z,15.84
2022-09-10T00:36:39.897Z,15.85
2022-09-10T00:39:16.493Z,15.86
2022-09-10T00:41:47.481Z,15.86
2022-09-10T00:44:37.733Z,15.86
2022-09-10T00:47:24.806Z,15.81
2022-09-10T00:50:02.855Z,15.83
2022-09-10T00:52:30.826Z,15.86
2022-09-10T00:54:59.628Z,15.85
2022-09-10T00:57:29.225Z,15.88
2022-09-10T01:00:02.258Z,15.89
2022-09-10T01:02:30.365Z,15.86
2022-09-10T01:04:58.441Z,15.82
2022-09-10T01:07:29.338Z,15.76
2022-09-10T01:10:02.527Z,15.69
2022-09-10T01:13:21.880Z,15.69
2022-09-10T01:15:56.788Z,15.62
2022-09-10T01:18:40.998Z,15.60
2022-09-10T01:21:22.095Z,15.60
2022-09-10T01:24:08.266Z,15.61
2022-09-10T01:26:55.181Z,15.62
2022-09-10T01:29:32.697Z,15.63
2022-09-10T01:32:15.633Z,15.63
2022-09-10T01:35:10.553Z,15.63
2022-09-10T01:37:39.900Z,15.60
2022-09-10T01:40:08.754Z,15.59
2022-09-10T01:42:39.781Z,15.55
2022-09-10T01:45:12.514Z,15.51
2022-09-10T01:48:01.081Z,15.54
2022-09-10T01:50:52.567Z,15.50
2022-09-10T01:53:47.373Z,15.47
2022-09-10T01:56:30.185Z,15.49
2022-09-10T01:59:09.325Z,15.49
2022-09-10T02:01:56.200Z,15.60
2022-09-10T02:04:25.068Z,15.59
2022-09-10T02:06:52.869Z,15.61
2022-09-10T02:09:21.163Z,15.70
2022-09-10T02:11:56.264Z,15.77
2022-09-10T02:14:43.353Z,15.78
2022-09-10T02:17:20.450Z,15.79
2022-09-10T02:19:51.923Z,15.85
2022-09-10T02:22:22.336Z,15.83
2022-09-10T02:24:52.413Z,15.83
2022-09-10T02:27:20.246Z,15.83
2022-09-10T02:29:49.717Z,15.85
2022-09-10T02:32:17.509Z,15.86
2022-09-10T02:34:45.520Z,15.88
2022-09-10T02:37:13.106Z,15.89
2022-09-10T02:39:42.017Z,15.91
2022-09-10T02:42:09.899Z,15.92
2022-09-10T02:44:37.775Z,15.93
2022-09-10T02:47:06.502Z,15.95
2022-09-10T02:49:34.914Z,15.96
2022-09-10T02:52:03.217Z,15.95
2022-09-10T02:54:30.805Z,15.89
2022-09-10T02:56:58.779Z,15.86
2022-09-10T02:59:26.573Z,15.86
2022-09-10T03:01:54.916Z,15.86
2022-09-10T03:04:23.506Z,15.83
2022-09-10T03:06:53.638Z,15.81
2022-09-10T03:09:24.359Z,15.80
2022-09-10T03:11:52.172Z,15.76
2022-09-10T03:14:23.307Z,15.71
2022-09-10T03:16:51.031Z,15.64
2022-09-10T03:19:18.751Z,15.64
2022-09-10T03:21:47.712Z,15.63
2022-09-10T03:24:15.677Z,15.64
2022-09-10T03:26:46.128Z,15.65
2022-09-10T03:29:16.156Z,15.57
2022-09-10T03:31:46.796Z,15.55
2022-09-10T03:34:16.555Z,15.56
2022-09-10T03:36:47.459Z,15.59
2022-09-10T03:39:16.403Z,15.55
2022-09-10T03:41:46.195Z,15.46
2022-09-10T03:44:16.085Z,15.41
2022-09-10T03:46:45.701Z,15.36
2022-09-10T03:49:17.388Z,15.32
2022-09-10T03:51:45.187Z,15.31
2022-09-10T03:54:15.211Z,15.29
2022-09-10T03:56:44.443Z,15.23
2022-09-10T03:59:15.079Z,15.19
2022-09-10T04:01:43.203Z,15.18
2022-09-10T04:04:11.078Z,15.17
2022-09-10T04:06:38.809Z,15.14
2022-09-10T04:09:06.413Z,15.17
2022-09-10T04:11:35.025Z,15.18
2022-09-10T04:14:03.205Z,15.20
2022-09-10T04:16:32.605Z,15.17
2022-09-10T04:19:01.029Z,15.09
2022-09-10T04:21:31.676Z,15.11
2022-09-10T04:24:00.846Z,15.14
2022-09-10T04:26:29.289Z,15.15
2022-09-10T04:28:57.273Z,15.18
2022-09-10T04:31:24.959Z,15.21
2022-09-10T04:33:56.592Z,15.18
2022-09-10T04:36:27.104Z,15.20
2022-09-10T04:38:55.089Z,15.26
2022-09-10T04:41:22.734Z,15.34
2022-09-10T04:43:50.741Z,15.42
2022-09-10T04:46:18.333Z,15.48
2022-09-10T04:48:47.681Z,15.51
2022-09-10T04:51:19.248Z,15.53
2022-09-10T04:53:49.212Z,15.58
2022-09-10T04:56:17.974Z,15.59
2022-09-10T04:58:47.205Z,15.58
2022-09-10T05:01:15.356Z,15.48
2022-09-10T05:03:45.305Z,15.41
2022-09-10T05:06:13.598Z,15.36
2022-09-10T05:08:41.604Z,15.37
2022-09-10T05:11:10.384Z,15.38
2022-09-10T05:13:38.055Z,15.40
2022-09-10T05:16:07.069Z,15.44
2022-09-10T05:18:35.212Z,15.55
2022-09-10T05:21:05.433Z,15.61
2022-09-10T05:23:34.701Z,15.63
2022-09-10T05:26:05.486Z,15.69
2022-09-10T05:28:33.589Z,15.72
2022-09-10T05:31:01.151Z,15.73
2022-09-10T05:33:29.958Z,15.77
2022-09-10T05:35:57.710Z,15.81
2022-09-10T05:38:26.761Z,15.85
2022-09-10T05:40:54.922Z,15.85
2022-09-10T05:43:22.759Z,15.75
2022-09-10T05:45:52.485Z,15.74
2022-09-10T05:48:21.648Z,15.78
2022-09-10T05:50:51.066Z,15.83
2022-09-10T05:53:19.029Z,15.87
2022-09-10T05:55:46.748Z,15.89
2022-09-10T05:58:16.886Z,15.92
2022-09-10T06:00:44.996Z,15.95
2022-09-10T06:03:14.236Z,15.98
2022-09-10T06:05:50.631Z,15.98
2022-09-10T06:08:23.594Z,15.93
2022-09-10T06:11:00.736Z,15.99
2022-09-10T06:13:34.484Z,16.02
2022-09-10T06:16:05.305Z,16.03
2022-09-10T06:18:34.923Z,16.02
2022-09-10T06:21:07.183Z,16.05
2022-09-10T06:23:36.355Z,16.09
2022-09-10T06:26:10.588Z,16.14
2022-09-10T06:28:38.780Z,16.14
2022-09-10T06:31:08.374Z,16.14
2022-09-10T06:33:38.010Z,16.15
2022-09-10T06:36:06.840Z,16.20
2022-09-10T06:38:34.662Z,16.23
2022-09-10T06:41:06.082Z,16.24
2022-09-10T06:43:45.741Z,16.24
2022-09-10T06:47:01.659Z,16.18
2022-09-10T06:49:15.969Z,16.20
2022-09-10T06:51:51.345Z,16.23
2022-09-10T06:54:19.500Z,16.32
2022-09-10T06:56:49.086Z,16.37
2022-09-10T06:59:18.513Z,16.43
2022-09-10T07:01:49.901Z,16.47
2022-09-10T07:04:19.533Z,16.51
2022-09-10T07:06:47.783Z,16.54
2022-09-10T07:09:17.249Z,16.54
2022-09-10T07:12:04.905Z,16.47
2022-09-10T07:14:36.290Z,16.48
2022-09-10T07:17:07.635Z,16.48
2022-09-10T07:20:01.593Z,16.52
2022-09-10T07:22:39.794Z,16.50
2022-09-10T07:25:10.878Z,16.55
2022-09-10T07:28:02.036Z,16.58
2022-09-10T07:30:33.425Z,16.53
2022-09-10T07:33:01.564Z,16.54
2022-09-10T07:35:31.365Z,16.58
2022-09-10T07:38:00.437Z,16.61
2022-09-10T07:40:29.045Z,16.59
2022-09-10T07:42:57.911Z,16.58
2022-09-10T07:45:26.989Z,16.50
2022-09-10T07:47:55.235Z,16.43
2022-09-10T07:50:23.834Z,16.37
2022-09-10T07:52:54.442Z,16.35
2022-09-10T07:55:24.836Z,16.40
2022-09-10T07:57:52.798Z,16.47
2022-09-10T08:00:20.851Z,16.45
2022-09-10T08:02:53.101Z,16.39
2022-09-10T08:05:23.697Z,16.33
2022-09-10T08:07:54.463Z,16.33
2022-09-10T08:10:24.974Z,16.33
2022-09-10T08:12:53.272Z,16.41
2022-09-10T08:15:25.656Z,16.41
2022-09-10T08:17:53.466Z,16.30
2022-09-10T08:20:25.294Z,16.26
2022-09-10T08:22:53.597Z,16.26
2022-09-10T08:25:21.889Z,16.23
2022-09-10T08:27:50.252Z,16.17
2022-09-10T08:30:18.058Z,16.22
2022-09-10T08:32:46.497Z,16.24
2022-09-10T08:35:15.048Z,16.27
2022-09-10T08:37:42.852Z,16.33
2022-09-10T08:40:12.593Z,16.37
2022-09-10T08:42:47.084Z,16.37
2022-09-10T08:45:23.954Z,16.40
2022-09-10T08:48:16.006Z,16.44
2022-09-10T08:51:16.136Z,16.52
2022-09-10T08:53:54.553Z,16.55
2022-09-10T08:56:24.279Z,16.59
2022-09-10T08:59:05.809Z,16.61
2022-09-10T09:01:47.977Z,16.61
2022-09-10T09:04:42.012Z,16.60
2022-09-10T09:07:15.689Z,16.54
2022-09-10T09:09:53.867Z,16.54
2022-09-10T09:12:31.624Z,16.60
2022-09-10T09:15:14.275Z,16.58
2022-09-10T09:17:48.486Z,16.58
2022-09-10T09:20:23.272Z,16.61
2022-09-10T09:22:55.323Z,16.65
2022-09-10T09:25:48.344Z,16.71
2022-09-10T09:28:28.423Z,16.74
2022-09-10T09:30:59.732Z,16.76
2022-09-10T09:33:30.658Z,16.77
2022-09-10T09:36:00.951Z,16.76
2022-09-10T09:38:37.768Z,16.73
2022-09-10T09:41:23.332Z,16.64
2022-09-10T09:44:00.175Z,16.68
2022-09-10T09:46:31.199Z,16.77
2022-09-10T09:49:02.790Z,16.84
2022-09-10T09:51:39.087Z,16.90
2022-09-10T09:57:03.126Z,17.09
2022-09-10T09:59:34.939Z,17.15
2022-09-10T10:02:13.095Z,17.18
2022-09-10T10:04:57.045Z,17.18
2022-09-10T10:07:33.956Z,17.16
2022-09-10T10:10:03.956Z,17.14
2022-09-10T10:12:32.197Z,17.14
2022-09-10T10:15:02.845Z,17.16
2022-09-10T10:17:37.959Z,17.20
2022-09-10T10:20:15.112Z,17.25
2022-09-10T10:22:45.033Z,17.31
2022-09-10T10:25:40.590Z,17.37
2022-09-10T10:28:34.595Z,17.39
2022-09-10T10:31:04.842Z,17.38
2022-09-10T10:33:33.872Z,17.47
2022-09-10T10:36:32.684Z,17.49
2022-09-10T10:39:15.879Z,17.47
2022-09-10T10:42:19.528Z,17.46
2022-09-10T10:45:21.282Z,17.49
2022-09-10T10:48:04.194Z,17.51
2022-09-10T10:51:25.897Z,17.51
2022-09-10T10:54:09.937Z,17.42
2022-09-10T10:56:42.862Z,17.42
2022-09-10T10:59:36.373Z,17.44
2022-09-10T11:02:24.562Z,17.50
2022-09-10T11:04:54.906Z,17.54
2022-09-10T11:07:27.530Z,17.54
2022-09-10T11:25:04.143Z,17.40
2022-09-10T11:27:47.044Z,17.41
2022-09-10T11:30:17.103Z,17.44
2022-09-10T11:32:59.583Z,17.51
2022-09-10T11:35:45.943Z,17.57
2022-09-10T11:38:20.634Z,17.56
2022-09-10T11:41:15.552Z,17.58
2022-09-10T11:44:14.535Z,17.59
2022-09-10T11:47:03.068Z,17.52
2022-09-10T11:49:42.313Z,17.51
2022-09-10T11:52:12.145Z,17.47
2022-09-10T11:54:43.720Z,17.45
2022-09-10T11:57:41.804Z,17.53
2022-09-10T12:00:17.833Z,17.50
2022-09-10T12:03:07.780Z,17.38
2022-09-10T12:05:54.275Z,17.28
2022-09-10T12:08:57.130Z,17.20
2022-09-10T12:11:35.523Z,17.13
2022-09-10T12:14:14.268Z,17.17
2022-09-10T12:16:49.914Z,17.19
2022-09-10T12:19:23.553Z,17.16
2022-09-10T12:21:57.965Z,17.23
2022-09-10T12:24:31.764Z,17.24
2022-09-10T12:27:05.331Z,17.26
2022-09-10T12:29:43.223Z,17.25
2022-09-10T12:32:21.994Z,17.25
2022-09-10T12:35:29.027Z,17.20
2022-09-10T12:38:34.164Z,17.29
2022-09-10T12:41:09.070Z,17.21
2022-09-10T12:43:42.600Z,17.26
2022-09-10T12:46:10.537Z,17.33
2022-09-10T12:48:45.679Z,17.38
2022-09-10T12:51:19.439Z,17.40
2022-09-10T12:54:16.234Z,17.38
2022-09-10T12:56:58.205Z,17.47
2022-09-10T12:59:45.000Z,17.51
2022-09-10T13:02:27.736Z,17.49
2022-09-10T13:05:18.762Z,17.51
2022-09-10T13:07:49.373Z,17.45
2022-09-10T13:10:26.408Z,17.48
2022-09-10T13:13:05.112Z,17.49
2022-09-10T13:15:35.850Z,17.45
2022-09-10T13:18:23.291Z,17.42
2022-09-10T13:20:51.764Z,17.33
2022-09-10T13:23:56.165Z,17.23
2022-09-10T13:26:55.293Z,17.22
2022-09-10T13:29:55.392Z,17.24
2022-09-10T13:32:35.216Z,17.22
2022-09-10T13:35:21.255Z,17.28
2022-09-10T13:38:20.423Z,17.30
2022-09-10T13:41:13.245Z,17.23
2022-09-10T13:43:59.471Z,17.19
2022-09-10T13:47:08.368Z,17.25
2022-09-10T13:49:53.049Z,17.31
2022-09-10T13:52:29.137Z,17.34
2022-09-10T13:54:58.474Z,17.37
2022-09-10T13:57:34.064Z,17.41
2022-09-10T14:00:08.598Z,17.44
2022-09-10T14:02:49.807Z,17.43
2022-09-10T14:06:21.076Z,17.40
2022-09-10T14:08:57.459Z,17.40
2022-09-10T14:11:38.172Z,17.40
2022-09-10T14:14:14.413Z,17.39
2022-09-10T14:16:55.163Z,17.41
2022-09-10T14:19:42.653Z,17.45
2022-09-10T14:22:22.427Z,17.37
2022-09-10T14:25:00.269Z,17.38
2022-09-10T14:27:50.455Z,17.42
2022-09-10T14:30:23.837Z,17.43
2022-09-10T14:32:52.510Z,17.41
2022-09-10T14:35:46.248Z,17.39
2022-09-10T14:38:21.487Z,17.37
2022-09-10T14:40:56.307Z,17.32
2022-09-10T14:43:37.489Z,17.37
2022-09-10T14:46:55.103Z,17.34
2022-09-10T14:49:34.538Z,17.29
2022-09-10T14:52:17.013Z,17.22
2022-09-10T14:54:52.599Z,17.11
2022-09-10T14:57:28.296Z,17.09
2022-09-10T15:00:02.215Z,17.08
2022-09-10T15:02:39.337Z,17.11
2022-09-10T15:05:17.751Z,17.11
2022-09-10T15:07:47.589Z,17.10
2022-09-10T15:10:17.190Z,17.08
2022-09-10T15:12:50.707Z,17.09
2022-09-10T15:15:18.518Z,17.05
2022-09-10T15:17:46.905Z,17.08
2022-09-10T15:20:39.178Z,17.06
2022-09-10T15:23:07.607Z,17.03
2022-09-10T15:25:47.833Z,17.03
2022-09-10T15:28:16.776Z,17.00
2022-09-10T15:30:45.733Z,17.00
2022-09-10T15:33:16.762Z,16.97
2022-09-10T15:35:44.644Z,16.90
2022-09-10T15:38:21.946Z,16.90
2022-09-10T15:40:50.384Z,16.88
2022-09-10T15:43:20.147Z,16.86
2022-09-10T15:45:49.009Z,16.81
2022-09-10T15:48:16.674Z,16.80
2022-09-10T15:50:45.059Z,16.81
2022-09-10T15:53:12.786Z,16.80
2022-09-10T15:55:42.849Z,16.80
2022-09-10T15:58:10.639Z,16.76
2022-09-10T16:00:38.467Z,16.76
2022-09-10T16:03:06.120Z,16.71
2022-09-10T16:05:35.594Z,16.67
2022-09-10T16:08:04.709Z,16.70
2022-09-10T16:10:39.535Z,16.73
2022-09-10T16:13:07.344Z,16.67
2022-09-10T16:15:37.330Z,16.64
2022-09-10T16:18:05.234Z,16.54
2022-09-10T16:20:33.474Z,16.49
2022-09-10T16:23:01.788Z,16.35
2022-09-10T16:25:31.220Z,16.38
2022-09-10T16:27:59.262Z,16.43
2022-09-10T16:30:27.045Z,16.45
2022-09-10T16:32:55.700Z,16.45
2022-09-10T16:35:49.689Z,16.47
2022-09-10T16:38:17.383Z,16.45
2022-09-10T16:40:45.732Z,16.45
2022-09-10T16:43:13.661Z,16.46
2022-09-10T16:45:50.083Z,16.47
2022-09-10T16:48:19.694Z,16.45
2022-09-10T16:50:47.345Z,16.41
2022-09-10T16:53:15.129Z,16.39
2022-09-10T16:55:42.883Z,16.40
2022-09-10T16:58:11.068Z,16.36
2022-09-10T17:01:04.343Z,16.41
2022-09-10T17:03:32.746Z,16.37
2022-09-10T17:06:00.510Z,16.36
2022-09-10T17:08:29.627Z,16.40
2022-09-10T17:10:58.177Z,16.37
2022-09-10T17:13:26.211Z,16.33
2022-09-10T17:16:57.009Z,16.26
2022-09-10T17:19:26.558Z,16.23
2022-09-10T17:21:55.923Z,16.26
2022-09-10T17:24:27.582Z,16.29
2022-09-10T17:26:55.905Z,16.29
2022-09-10T17:29:25.079Z,16.27
2022-09-10T17:31:57.642Z,16.22
2022-09-10T17:34:26.606Z,16.16
2022-09-10T17:36:56.394Z,16.13
2022-09-10T17:39:30.180Z,16.10
2022-09-10T17:41:59.017Z,16.11
2022-09-10T17:44:27.262Z,16.07
2022-09-10T17:46:55.473Z,16.02
2022-09-10T17:49:24.011Z,15.96
2022-09-10T17:51:51.948Z,15.90
2022-09-10T17:54:20.023Z,15.89
2022-09-10T17:56:48.485Z,15.88
2022-09-10T17:59:16.253Z,15.79
2022-09-10T18:01:44.077Z,15.77
2022-09-10T18:04:14.556Z,15.80
2022-09-10T18:06:47.805Z,15.81
2022-09-10T18:09:18.207Z,15.85
2022-09-10T18:11:46.100Z,15.88
2022-09-10T18:14:19.725Z,15.93
2022-09-10T18:16:47.779Z,15.93
2022-09-10T18:19:17.720Z,15.92
2022-09-10T18:21:47.030Z,15.93
2022-09-10T18:24:24.380Z,15.99
2022-09-10T18:27:02.941Z,15.93
2022-09-10T18:29:32.577Z,15.85
2022-09-10T18:32:02.179Z,15.88
2022-09-10T18:34:31.122Z,15.91
2022-09-10T18:37:00.862Z,15.92
2022-09-10T18:39:32.856Z,15.89
2022-09-10T18:42:01.320Z,15.88
2022-09-10T18:44:33.563Z,15.90
2022-09-10T18:47:01.695Z,15.91
2022-09-10T18:49:30.094Z,15.96
2022-09-10T18:51:57.976Z,16.01
2022-09-10T18:54:29.921Z,16.05
2022-09-10T18:56:58.292Z,16.04
2022-09-10T18:59:26.536Z,16.07
2022-09-10T19:01:56.174Z,16.09
2022-09-10T19:04:41.222Z,16.03
2022-09-10T19:07:18.110Z,15.92
2022-09-10T19:09:46.373Z,15.88
2022-09-10T19:12:18.583Z,15.88
2022-09-10T19:14:46.848Z,15.92
2022-09-10T19:17:16.056Z,15.92
2022-09-10T19:19:43.875Z,15.96
2022-09-10T19:22:13.582Z,16.01
2022-09-10T19:24:54.393Z,16.02
2022-09-10T19:27:30.256Z,16.06
2022-09-10T19:30:01.797Z,16.10
2022-09-10T19:32:56.370Z,16.13
2022-09-10T19:35:24.392Z,16.07
2022-09-10T19:37:52.738Z,16.01
2022-09-10T19:40:20.657Z,15.92
2022-09-10T19:42:49.846Z,15.88
2022-09-10T19:45:17.546Z,15.87
2022-09-10T19:47:45.185Z,15.86
2022-09-10T19:50:13.763Z,15.81
2022-09-10T19:53:11.842Z,15.86
2022-09-10T19:55:41.679Z,15.82
2022-09-10T19:58:10.933Z,15.86
2022-09-10T20:00:46.933Z,15.88
2022-09-10T20:03:16.720Z,15.88
2022-09-10T20:06:12.069Z,15.91
2022-09-10T20:08:42.169Z,15.88
2022-09-10T20:11:16.835Z,15.91
2022-09-10T20:13:47.586Z,15.82
2022-09-10T20:16:17.173Z,15.84
2022-09-10T20:18:46.884Z,15.79
2022-09-10T20:21:18.063Z,15.79
2022-09-10T20:23:47.164Z,15.76
2022-09-10T20:26:37.583Z,15.75
2022-09-10T20:29:09.662Z,15.75
2022-09-10T20:31:41.496Z,15.75
2022-09-10T20:34:14.062Z,15.80
2022-09-10T20:36:42.461Z,15.80
2022-09-10T20:39:14.382Z,15.76
2022-09-10T20:41:43.185Z,15.68
2022-09-10T20:44:14.816Z,15.67
2022-09-10T20:46:43.361Z,15.68
2022-09-10T20:49:38.083Z,15.64
2022-09-10T20:52:07.255Z,15.54
2022-09-10T20:54:34.923Z,15.53
2022-09-10T20:57:02.960Z,15.52
2022-09-10T20:59:30.846Z,15.46
2022-09-10T21:01:58.797Z,15.51
2022-09-10T21:04:51.896Z,15.54
2022-09-10T21:07:20.428Z,15.47
2022-09-10T21:09:48.231Z,15.50
2022-09-10T21:12:16.305Z,15.51
2022-09-10T21:14:44.379Z,15.42
2022-09-10T21:17:12.445Z,15.27
2022-09-10T21:19:40.184Z,15.27
2022-09-10T21:22:07.900Z,15.32
2022-09-10T21:24:39.511Z,15.30
2022-09-10T21:27:07.313Z,15.33
2022-09-10T21:29:36.323Z,15.33
2022-09-10T21:32:04.195Z,15.36
2022-09-10T21:34:32.622Z,15.38
2022-09-10T21:37:00.363Z,15.38
2022-09-10T21:39:28.207Z,15.35
2022-09-10T21:41:56.908Z,15.39
2022-09-10T21:44:25.270Z,15.39
2022-09-10T21:46:53.089Z,15.38
2022-09-10T21:49:23.239Z,15.41
2022-09-10T21:51:51.214Z,15.36
2022-09-10T21:54:21.241Z,15.38
2022-09-10T21:56:51.279Z,15.37
2022-09-10T21:59:21.641Z,15.38
2022-09-10T22:01:49.800Z,15.37
2022-09-10T22:04:22.459Z,15.25
2022-09-10T22:06:51.561Z,15.12
2022-09-10T22:09:20.774Z,14.89
2022-09-10T22:11:52.092Z,14.79
2022-09-10T22:14:23.497Z,14.84
2022-09-10T22:16:52.039Z,14.80
2022-09-10T22:19:23.087Z,14.79
2022-09-10T22:21:52.079Z,14.82
2022-09-10T22:24:20.235Z,14.85
2022-09-10T22:26:48.043Z,14.89
2022-09-10T22:29:18.106Z,14.95
2022-09-10T22:31:46.593Z,14.87
2022-09-10T22:34:16.393Z,14.89
2022-09-10T22:36:45.754Z,14.92
2022-09-10T22:39:17.014Z,15.01
2022-09-10T22:41:46.048Z,15.06
2022-09-10T22:44:17.931Z,15.13
2022-09-10T22:46:46.303Z,15.12
2022-09-10T22:49:16.656Z,15.06
2022-09-10T22:51:46.075Z,15.07
2022-09-10T22:54:14.158Z,15.08
2022-09-10T22:56:42.284Z,15.10
2022-09-10T22:59:14.800Z,14.96
2022-09-10T23:01:43.822Z,14.78
2022-09-10T23:04:11.636Z,14.64
2022-09-10T23:06:39.838Z,14.65
2022-09-10T23:09:13.742Z,14.65
2022-09-10T23:11:44.623Z,14.65
2022-09-10T23:14:39.264Z,14.73
2022-09-10T23:17:07.200Z,14.73
2022-09-10T23:20:00.480Z,14.71
2022-09-10T23:22:28.439Z,14.70
2022-09-10T23:24:56.241Z,14.69
2022-09-10T23:27:24.594Z,14.70
2022-09-10T23:29:52.317Z,14.64
2022-09-10T23:32:20.045Z,14.67
2022-09-10T23:34:47.765Z,14.72
2022-09-10T23:37:16.857Z,14.77
2022-09-10T23:39:44.849Z,14.71
2022-09-10T23:42:13.028Z,14.66
2022-09-10T23:44:40.922Z,14.54
2022-09-10T23:47:08.839Z,14.52
2022-09-10T23:49:36.662Z,14.43
2022-09-10T23:52:04.671Z,14.27
2022-09-10T23:54:32.494Z,14.17
2022-09-10T23:57:00.244Z,14.21
2022-09-10T23:59:29.793Z,14.20
